x

Lake Winnipeg Narrows (45145) Wave Buoy

12:00pm - Wed 16th Aug 2017 All times are UTC.

  • Sig Wave height 4.3ft
  • Wind
    18mph, 22mph gusts
  • Sea Temp 71°f
  • Air Temp 66°f
  • Sea Pressure 1012.2mb

More Historic Weather Station data

Upgrade to MSW Pro to gain access to the past 30 days of data for over 8000 Wavebouys and Weather Stations around the globe.

Join

Comparision Forecast

View Surf forecast
   
Wed 08/16 12:00pm 4.5ft 18 22 mph 1012.2mb 71f 66f
11:00am 4ft 16 18 mph 1012.2mb 71f 67f
10:00am 4.5ft 13 18 mph 1012.6mb 71f 67f
9:00am 5ft 18 20 mph 1012.7mb 71f 68f
8:00am 3.5ft 18 20 mph 1012.4mb 71f 69f
7:00am 1.3ft 13 16 mph 1012.3mb 71f 70f
6:00am 2ft 7 9 mph 1011.7mb 71f 70f
5:00am 0.3ft 16 18 mph 1011.6mb 71f 72f
4:00am  -  7 9 mph 1011.7mb 72f 72f
3:00am 0.3ft 7 7 mph 1011.7mb 71f 72f
2:00am 0.3ft 4 4 mph 1011.5mb 72f 72f
1:00am 0.3ft 2 2 mph 1011.3mb 72f 72f
12:00am 1.6ft 4 4 mph 1011.3mb 72f 72f
Tue 08/15 11:00pm 2.5ft 7 9 mph 1011.3mb 72f 72f
10:00pm 4ft 9 11 mph 1011.2mb 72f 72f
9:00pm 0.3ft 13 20 mph 1011.4mb 72f 73f
8:00pm 0.3ft 4 7 mph 1011.3mb 73f 74f
7:00pm 0.3ft 7 7 mph 1011.9mb 72f 74f
6:00pm 1ft 7 9 mph 1012.2mb 72f 71f
5:00pm 1.3ft 9 11 mph 1012.5mb 71f 70f
4:00pm 2ft 13 13 mph 1012.1mb 71f 69f
3:00pm 3.5ft 11 13 mph 1012.1mb 71f 67f
2:00pm 4.5ft 13 16 mph 1012.2mb 71f 66f
1:00pm 5ft 16 18 mph 1012.4mb 71f 66f
12:00pm 5ft 18 20 mph 1012.3mb 71f 66f
11:00am 4.5ft 18 20 mph 1012.3mb 71f 66f
10:00am 4.5ft 18 22 mph 1012.1mb 72f 67f
9:00am 4ft 18 22 mph 1012.3mb 72f 67f
8:00am 4ft 18 22 mph 1012.2mb 72f 68f
7:00am 4ft 18 22 mph 1011.7mb 72f 68f
6:00am 4.5ft 18 20 mph 1011.4mb 72f 70f
5:00am 1.6ft 18 22 mph 1011.3mb 73f 72f
4:00am 2ft 7 9 mph 1011.2mb 73f 74f
3:00am 2.5ft 7 9 mph 1011mb 73f 74f
2:00am 3.5ft 11 13 mph 1010.5mb 74f 74f
1:00am 2ft 13 16 mph 1010.3mb 74f 74f
Mon 08/14 11:00pm 2.5ft 9 11 mph 1010.6mb 75f 75f
10:00pm 1.3ft 9 11 mph 1010.6mb 75f 75f
9:00pm 0.7ft 7 9 mph 1010.8mb 75f 75f
8:00pm 0.3ft 9 11 mph 1011mb 74f 75f
7:00pm 0.3ft 9 9 mph 1011mb 74f 76f
6:00pm 0.3ft 7 9 mph 1011.1mb 73f 74f
5:00pm 0.7ft 7 9 mph 1011.1mb 73f 74f
4:00pm 0.3ft 9 11 mph 1011mb 72f 72f
3:00pm 0.3ft 9 9 mph 1011.1mb 72f 69f
2:00pm 0.7ft 4 7 mph 1011.2mb 72f 67f
1:00pm 0.7ft 11 13 mph 1011.1mb 72f 67f
12:00pm 2ft 9 9 mph 1010.8mb 72f 70f
11:00am 3.5ft 7 9 mph 1010.6mb 72f 71f
10:00am 1ft 9 9 mph 1010.6mb 72f 70f
9:00am 1ft 7 9 mph 1010.6mb 72f 69f
8:00am 1ft 9 9 mph 1010.5mb 72f 70f
7:00am 1.3ft 9 11 mph 1010.7mb 72f 71f
6:00am 1.3ft 9 9 mph 1010.8mb 72f 71f
5:00am 1.6ft 11 13 mph 1010.7mb 72f 72f
4:00am 1.6ft 11 16 mph 1010.4mb 73f 73f
3:00am 3ft 11 13 mph 1010.5mb 73f 73f
2:00am 2ft 13 16 mph 1011mb 73f 73f
1:00am 1ft 13 16 mph 1010.9mb 73f 73f
12:00am 1.3ft 11 13 mph 1011.2mb 74f 74f
Sun 08/13 11:00pm 1.3ft 9 9 mph 1011.4mb 73f 75f
10:00pm 2ft 9 11 mph 1011.8mb 73f 75f
9:00pm 0.7ft 9 11 mph 1012.1mb 74f 75f
8:00pm 0.7ft 9 11 mph 1012.3mb 73f 75f
7:00pm 0.7ft 9 9 mph 1012.7mb 73f 74f
6:00pm 1ft 7 9 mph 1013.3mb 73f 74f
5:00pm 1ft 7 9 mph 1013.5mb 73f 73f
4:00pm 1.6ft 9 9 mph 1014mb 73f 72f
3:00pm 3ft 9 11 mph 1014mb 72f 71f
2:00pm 3ft 11 13 mph 1014.2mb 72f 70f
1:00pm 4ft 13 16 mph 1014.4mb 73f 70f
12:00pm 2.5ft 11 13 mph 1014.5mb 73f 70f
11:00am 2.5ft 11 13 mph 1014.6mb 74f 70f
10:00am 0.7ft 9 11 mph 1014.8mb 74f 70f
9:00am 0.3ft 9 13 mph 1014.7mb 74f 71f
8:00am  -  7 9 mph 1014.8mb 74f 73f
7:00am  -  7 9 mph 1014.9mb 75f 74f
6:00am 0.3ft 4 4 mph 1015.2mb 75f 75f
5:00am 0.3ft 2 2 mph 1015.2mb 75f 75f
4:00am 0.3ft 2 2 mph 1015.2mb 76f 75f
3:00am  -  2 4 mph 1015.3mb 76f 76f
2:00am  -  2 4 mph 1015.4mb 76f 76f
1:00am  -  4 4 mph 1015.5mb 76f 76f
12:00am  -  7 7 mph 1015.8mb 77f 76f
Sat 08/12 11:00pm  -  4 7 mph 1016.3mb - 77f
10:00pm  -  4 4 mph 1016.6mb - 76f
9:00pm  -  2 4 mph 1017.3mb - 76f
8:00pm  -  4 7 mph 1017.7mb 76f 75f
7:00pm 0.3ft 4 7 mph 1018.1mb 76f 73f
6:00pm 0.3ft 2 4 mph 1018.5mb 76f 72f
5:00pm 0.3ft 4 4 mph 1018.7mb 74f 70f
4:00pm 0.3ft 4 4 mph 1018.7mb 73f 70f
3:00pm 0.3ft 4 4 mph 1019mb 72f 69f
2:00pm 0.7ft 7 7 mph 1019mb 72f 69f